Crabtree, Oregon
Current Conditions -  °F | °C
As of 5:56 AM on Monday 20 Oct 2014 (Local Time) from KSLE Reporting Station
Light Rain Light Rain  
Wind Chill: 58°   Ceiling: 9000
Heat Index: 58°   Visibility: 10mi
Dew Point: 56°   Wind: 9mph
Humidity: 93%   Direction: 160°SSE
Pressure: 29.75"   Gusts: NA
Location:  44.63°N, 122.9°W
Report Text: KSLE 201256Z AUTO 16008KT 10SM -RA OVC090 14/13 A2975 RMK AO2 RAB11 SLP072 P0002 T01440133
Loading
Personal Weather Stations






























Interactive Weather Map
Tropical Storm Tracking
New forecast layout! Learn more

10-Day Weather Forecast

Advertisements
Track Severe Weather on mobile